Yantis, TX (75497)

1:57 PM CST on March 03, 2015 (GMT -0600)
Brook Harbor, Lake Fork | Change Station
CLOSE
Current Station
Personal Weather Station
Location: Yantis, TX
Elevation: 412 ft
Nearby Weather Stations

Elev 412 ft 32.89 °N, 95.53 °W | Updated 5 seconds ago

Overcast
Overcast
58.2 °F
Feels Like 58.2 °F
N
0.0
Wind Variable Wind from North
Gusts 0.0 mph

Today
High -- | Low -- °F
--% Chance of Precip.
Yesterday
High -- | Low -- °F
Precip. -- in
6:47 AM 6:20 PM
Waxing Gibbous, 97% visible
Pressure 29.91 in
Visibility 7.0 miles
Clouds Overcast 800 ft
Dew Point 57 °F
Humidity 96%
Rainfall 0.00 in
Snow Depth Not available.
UV 2 out of 12
Pollen 9.20 out of 12
Air Quality Not available.
Flu Activity Not available.
METAR KJDD 031935Z AUTO 17005KT 7SM OVC008 17/17 A2991 RMK AO2

More Conditions Fewer Conditions

Pressure 29.91 in
Visibility 7.0 miles
Clouds Overcast 800 ft
Dew Point 57 °F
Humidity 96%
Rainfall 0.00 in
Snow Depth Not available.
UV 2 out of 12
Pollen 9.20 out of 12
Air Quality Not available.
Flu Activity Not available.
METAR KJDD 031935Z AUTO 17005KT 7SM OVC008 17/17 A2991 RMK AO2

More Conditions Fewer Conditions

Nowcast | as of 12:07 PM CST on March 3, 2015

Patchy dense fog continues to improve into the 2 to 5 mile range in most locales. There are even some patches of Blue Sky from near Tyler to Texarkana. The light rain showers continue to spread over northwest and north central Louisiana into south Arkansas moving north...northeast at 40 mph and mainly from Minden...to Farmerville and El Dorado. Rainfall amounts will be from a trace to a few hundreths of an inch over the next hour or two. Otherwise...the warm front is quietly moving north across I-20 at the noon hour.

×

10-Day Weather Forecast

Almanac

Astronomy

Mar. 03, 2015 Rise Set
Actual Time
Civil Twilight
Nautical Twilight
Astronomical Twilight
Moon
Length of Visible Light
Length of Day
Tomorrow will be .
, % of the Moon is Illuminated

Today's Extremes

State Highs State Lows

Community

WunderPhotos

Upload Photos

1,802,217 photos uploaded!

WunderBlogs® & News

Nearby

Air Quality

  Air Quality AQ Index Pollutant
Not available.

Snow Depth

Station Depth Elevation

Earthquake Activity

City Distance Mag. Time & Date
Minimum magnitude displayed is 2.5.

Coastal Water Temperatures

Place Temperature

Nearby Weather Stations